createdAt,value
2023-01-05T00:01:57.607Z,6.23
2023-01-05T00:04:24.850Z,5.53
2023-01-05T00:06:52.367Z,5.60
2023-01-05T00:09:20.196Z,5.77
2023-01-05T00:12:05.791Z,6.00
2023-01-05T00:14:52.255Z,5.80
2023-01-05T00:17:41.046Z,5.03
2023-01-05T00:20:35.356Z,5.20
2023-01-05T00:23:02.773Z,5.90
2023-01-05T00:25:34.048Z,5.90
2023-01-05T00:28:01.155Z,6.40
2023-01-05T00:30:34.824Z,6.13
2023-01-05T00:33:01.893Z,5.30
2023-01-05T00:35:29.857Z,5.93
2023-01-05T00:37:56.820Z,5.47
2023-01-05T00:40:23.916Z,5.67
2023-01-05T00:42:50.958Z,6.03
2023-01-05T00:45:19.266Z,6.97
2023-01-05T00:47:46.337Z,5.67
2023-01-05T00:50:16.500Z,6.00
2023-01-05T00:52:44.387Z,5.53
2023-01-05T00:55:11.571Z,6.03
2023-01-05T00:57:38.584Z,5.93
2023-01-05T01:00:09.341Z,6.93
2023-01-05T01:02:36.360Z,6.03
2023-01-05T01:05:03.331Z,6.07
2023-01-05T01:07:30.397Z,6.37
2023-01-05T01:09:57.387Z,6.63
2023-01-05T01:12:24.460Z,6.40
2023-01-05T01:14:51.589Z,6.97
2023-01-05T01:17:18.645Z,6.17
2023-01-05T01:19:46.858Z,5.17
2023-01-05T01:22:14.775Z,6.30
2023-01-05T01:24:41.941Z,6.23
2023-01-05T01:27:08.933Z,6.17
2023-01-05T01:29:35.866Z,6.10
2023-01-05T01:32:03.057Z,6.10
2023-01-05T01:34:30.321Z,6.63
2023-01-05T01:36:57.500Z,6.60
2023-01-05T01:39:24.525Z,6.10
2023-01-05T01:41:55.692Z,6.30
2023-01-05T01:44:47.256Z,5.97
2023-01-05T01:47:44.352Z,6.97
2023-01-05T01:50:36.568Z,6.73
2023-01-05T01:53:09.411Z,6.90
2023-01-05T01:55:37.624Z,5.70
2023-01-05T01:58:11.275Z,6.70
2023-01-05T02:00:40.408Z,5.93
2023-01-05T02:03:07.385Z,6.93
2023-01-05T02:05:38.053Z,7.67
2023-01-05T02:08:12.778Z,6.07
2023-01-05T02:10:53.650Z,6.33
2023-01-05T02:13:50.259Z,6.70
2023-01-05T02:16:47.189Z,6.23
2023-01-05T02:19:59.782Z,6.57
2023-01-05T02:23:22.873Z,5.87
2023-01-05T02:26:07.675Z,5.77
2023-01-05T02:28:54.630Z,7.30
2023-01-05T02:32:16.790Z,6.33
2023-01-05T02:35:08.072Z,6.03
2023-01-05T02:38:04.245Z,6.00
2023-01-05T02:40:44.417Z,6.17
2023-01-05T02:43:14.226Z,6.73
2023-01-05T02:45:41.191Z,6.53
2023-01-05T02:48:08.748Z,6.53
2023-01-05T02:51:04.704Z,7.47
2023-01-05T02:53:41.757Z,5.63
2023-01-05T02:56:17.028Z,5.87
2023-01-05T02:58:52.351Z,5.63
2023-01-05T03:01:31.445Z,6.23
2023-01-05T03:04:14.319Z,5.43
2023-01-05T03:07:07.435Z,6.33
2023-01-05T03:09:38.176Z,5.57
2023-01-05T03:12:41.390Z,6.57
2023-01-05T03:15:31.274Z,6.00
2023-01-05T03:18:08.789Z,6.47
2023-01-05T03:20:40.627Z,6.73
2023-01-05T03:23:30.501Z,6.43
2023-01-05T03:26:16.105Z,6.40
2023-01-05T03:29:08.395Z,5.37
2023-01-05T03:32:13.506Z,5.07
2023-01-05T03:35:05.080Z,5.60
2023-01-05T03:37:39.802Z,6.13
2023-01-05T03:40:18.277Z,6.50
2023-01-05T03:42:46.771Z,5.50
2023-01-05T03:45:15.796Z,5.43
2023-01-05T03:47:42.747Z,6.20
2023-01-05T03:50:10.209Z,6.07
2023-01-05T03:52:37.229Z,6.00
2023-01-05T03:55:06.629Z,6.20
2023-01-05T03:57:33.738Z,5.90
2023-01-05T04:00:00.681Z,6.07
2023-01-05T04:02:27.815Z,5.60
2023-01-05T04:04:54.929Z,5.73
2023-01-05T04:07:21.876Z,6.67
2023-01-05T04:09:48.865Z,7.37
2023-01-05T04:12:15.834Z,6.30
2023-01-05T04:14:42.842Z,5.77
2023-01-05T04:17:09.831Z,6.47
2023-01-05T04:19:36.801Z,6.93
2023-01-05T04:22:03.769Z,6.83
2023-01-05T04:24:30.725Z,6.13
2023-01-05T04:26:57.692Z,5.90
2023-01-05T04:29:24.662Z,5.67
2023-01-05T04:31:51.595Z,5.93
2023-01-05T04:34:18.794Z,5.83
2023-01-05T04:36:48.021Z,6.70
2023-01-05T04:39:15.666Z,6.13
2023-01-05T04:41:42.613Z,6.63
2023-01-05T04:44:09.677Z,5.53
2023-01-05T04:46:36.680Z,6.40
2023-01-05T04:49:03.733Z,6.43
2023-01-05T04:51:30.752Z,6.27
2023-01-05T04:53:57.685Z,7.00
2023-01-05T04:56:24.627Z,6.43
2023-01-05T04:58:51.716Z,5.97
2023-01-05T05:01:18.943Z,7.00
2023-01-05T05:03:46.084Z,6.70
2023-01-05T05:06:13.118Z,6.23
2023-01-05T05:08:40.149Z,6.90
2023-01-05T05:11:07.153Z,5.90
2023-01-05T05:13:34.115Z,6.93
2023-01-05T05:16:01.380Z,6.13
2023-01-05T05:18:28.562Z,7.83
2023-01-05T05:20:55.646Z,7.53
2023-01-05T05:23:22.773Z,6.20
2023-01-05T05:25:53.432Z,6.30
2023-01-05T05:28:23.068Z,7.60
2023-01-05T05:30:50.393Z,6.43
2023-01-05T05:33:17.497Z,7.03
2023-01-05T05:35:44.460Z,6.50
2023-01-05T05:38:11.525Z,6.40
2023-01-05T05:40:38.603Z,7.73
2023-01-05T05:43:05.781Z,5.97
2023-01-05T05:45:32.773Z,5.73
2023-01-05T05:48:01.300Z,5.87
2023-01-05T05:50:28.602Z,6.60
2023-01-05T05:52:55.532Z,6.93
2023-01-05T05:55:22.507Z,6.23
2023-01-05T05:57:49.472Z,5.53
2023-01-05T06:00:16.828Z,6.00
2023-01-05T06:02:43.928Z,6.57
2023-01-05T06:05:10.982Z,6.67
2023-01-05T06:07:37.948Z,5.67
2023-01-05T06:10:05.583Z,5.83
2023-01-05T06:12:32.988Z,6.40
2023-01-05T06:15:00.031Z,6.13
2023-01-05T06:17:27.031Z,5.73
2023-01-05T06:19:53.999Z,6.23
2023-01-05T06:22:21.067Z,5.83
2023-01-05T06:24:48.052Z,5.43
2023-01-05T06:27:15.041Z,6.07
2023-01-05T06:29:41.979Z,6.33
2023-01-05T06:32:08.931Z,5.60
2023-01-05T06:34:35.909Z,6.50
2023-01-05T06:37:02.896Z,6.70
2023-01-05T06:39:29.825Z,5.60
2023-01-05T06:41:56.807Z,6.33
2023-01-05T06:44:23.774Z,5.60
2023-01-05T06:46:50.715Z,5.73
2023-01-05T06:49:17.745Z,6.27
2023-01-05T06:51:44.679Z,6.87
2023-01-05T06:54:11.637Z,5.77
2023-01-05T06:56:38.595Z,5.67
2023-01-05T06:59:05.580Z,6.07
2023-01-05T07:01:32.902Z,6.07
2023-01-05T07:04:00.113Z,5.40
2023-01-05T07:06:27.224Z,5.77
2023-01-05T07:08:54.152Z,6.70
2023-01-05T07:11:21.191Z,5.40
2023-01-05T07:13:49.778Z,5.50
2023-01-05T07:16:18.650Z,5.83
2023-01-05T07:18:45.892Z,5.73
2023-01-05T07:21:12.972Z,6.63
2023-01-05T07:23:39.996Z,6.83
2023-01-05T07:26:09.323Z,6.53
2023-01-05T07:28:37.872Z,6.33
2023-01-05T07:31:05.170Z,7.20
2023-01-05T07:33:37.501Z,6.90
2023-01-05T07:36:07.004Z,6.87
2023-01-05T07:38:33.992Z,6.33
2023-01-05T07:41:02.350Z,7.27
2023-01-05T07:43:29.835Z,7.30
2023-01-05T07:46:01.395Z,6.87
2023-01-05T07:48:28.488Z,6.53
2023-01-05T07:51:04.538Z,6.10
2023-01-05T07:53:43.275Z,6.83
2023-01-05T07:56:12.206Z,6.23
2023-01-05T07:58:39.524Z,6.73
2023-01-05T08:01:13.382Z,5.87
2023-01-05T08:03:41.237Z,6.27
2023-01-05T08:06:14.638Z,6.13
2023-01-05T08:08:42.126Z,7.33
2023-01-05T08:11:11.110Z,6.03
2023-01-05T08:13:57.069Z,6.83
2023-01-05T08:16:24.074Z,6.70
2023-01-05T08:18:51.128Z,6.03
2023-01-05T08:21:18.159Z,6.83
2023-01-05T08:23:47.855Z,7.57
2023-01-05T08:26:21.224Z,6.67
2023-01-05T08:28:48.372Z,7.23
2023-01-05T08:31:28.978Z,8.00
2023-01-05T08:34:02.254Z,7.03
2023-01-05T08:36:31.331Z,7.70
2023-01-05T08:39:01.158Z,7.17
2023-01-05T08:41:35.897Z,6.90
2023-01-05T08:44:14.480Z,6.83
2023-01-05T08:46:41.521Z,6.13
2023-01-05T08:49:09.798Z,6.97
2023-01-05T08:51:37.601Z,6.43
2023-01-05T08:54:04.752Z,6.47
2023-01-05T08:56:38.117Z,6.07
2023-01-05T08:59:05.943Z,6.10
2023-01-05T09:01:33.170Z,6.33
2023-01-05T09:04:00.357Z,6.27
2023-01-05T09:06:27.332Z,5.90
2023-01-05T09:08:54.986Z,7.17
2023-01-05T09:11:25.454Z,6.57
2023-01-05T09:13:55.954Z,6.10
2023-01-05T09:19:14.250Z,7.90
2023-01-05T09:21:41.265Z,6.90
2023-01-05T09:24:12.788Z,6.60
2023-01-05T09:26:41.591Z,5.97
2023-01-05T09:29:09.781Z,7.03
2023-01-05T09:31:36.852Z,5.73
2023-01-05T09:34:04.136Z,6.23
2023-01-05T09:36:32.374Z,6.23
2023-01-05T09:38:59.434Z,6.73
2023-01-05T09:41:37.720Z,6.87
2023-01-05T09:44:32.558Z,6.93
2023-01-05T09:47:16.224Z,6.23
2023-01-05T09:49:43.524Z,6.10
2023-01-05T09:52:12.345Z,6.27
2023-01-05T09:54:40.427Z,6.47
2023-01-05T09:57:21.128Z,5.97
2023-01-05T09:59:55.371Z,6.77
2023-01-05T10:02:27.215Z,6.90
2023-01-05T10:04:55.565Z,5.57
2023-01-05T10:07:44.677Z,6.30
2023-01-05T10:11:17.818Z,6.37
2023-01-05T10:14:20.228Z,6.77
2023-01-05T10:16:53.609Z,7.00
2023-01-05T10:19:30.318Z,7.17
2023-01-05T10:22:39.232Z,6.57
2023-01-05T10:25:33.006Z,6.57
2023-01-05T10:28:36.788Z,6.53
2023-01-05T10:31:23.991Z,6.67
2023-01-05T10:33:57.947Z,6.70
2023-01-05T10:37:08.528Z,7.33
2023-01-05T10:39:58.857Z,6.87
2023-01-05T10:42:58.975Z,5.87
2023-01-05T10:45:30.555Z,6.87
2023-01-05T10:47:58.952Z,7.20
2023-01-05T10:50:45.566Z,5.90
2023-01-05T10:53:16.411Z,7.57
2023-01-05T10:56:06.030Z,7.07
2023-01-05T10:58:39.014Z,5.73
2023-01-05T11:01:29.426Z,7.43
2023-01-05T11:04:29.260Z,7.43
2023-01-05T11:07:06.284Z,6.50
2023-01-05T11:09:39.533Z,7.30
2023-01-05T11:12:18.186Z,7.17
2023-01-05T11:14:59.111Z,7.47
2023-01-05T11:17:28.852Z,6.80
2023-01-05T11:19:57.809Z,6.43
2023-01-05T11:22:36.143Z,7.23
2023-01-05T11:25:30.216Z,6.93
2023-01-05T11:28:15.949Z,6.77
2023-01-05T11:31:04.741Z,6.40
2023-01-05T11:33:36.390Z,8.10
2023-01-05T11:36:05.518Z,7.80
2023-01-05T11:38:33.100Z,5.80
2023-01-05T11:41:01.519Z,6.53
2023-01-05T11:43:32.436Z,6.40
2023-01-05T11:46:03.716Z,7.10
2023-01-05T11:48:34.457Z,6.63
2023-01-05T11:51:02.785Z,7.07
2023-01-05T11:53:37.072Z,6.67
2023-01-05T11:56:09.734Z,6.20
2023-01-05T11:58:49.266Z,6.67
2023-01-05T12:01:47.640Z,7.33
2023-01-05T12:05:02.949Z,8.07
2023-01-05T12:07:48.489Z,5.70
2023-01-05T12:10:40.287Z,7.27
2023-01-05T12:13:45.970Z,6.07
2023-01-05T12:16:35.162Z,4.70
2023-01-05T12:19:39.883Z,4.53
2023-01-05T12:22:35.610Z,5.20
2023-01-05T12:25:19.382Z,4.97
2023-01-05T12:28:39.650Z,6.47
2023-01-05T12:34:38.943Z,7.53
2023-01-05T12:37:50.475Z,6.37
2023-01-05T12:41:00.071Z,7.63
2023-01-05T12:43:56.262Z,7.23
2023-01-05T12:46:59.973Z,6.87
2023-01-05T12:49:53.186Z,7.77
2023-01-05T12:52:33.711Z,7.77
2023-01-05T12:55:20.862Z,6.90
2023-01-05T12:57:57.395Z,7.10
2023-01-05T13:00:29.228Z,7.33
2023-01-05T13:03:02.162Z,6.47
2023-01-05T13:05:45.916Z,6.97
2023-01-05T13:08:45.025Z,6.93
2023-01-05T13:11:31.937Z,6.37
2023-01-05T13:14:10.778Z,5.93
2023-01-05T13:16:46.076Z,6.17
2023-01-05T13:19:20.912Z,6.20
2023-01-05T13:21:48.529Z,6.00
2023-01-05T13:24:28.226Z,6.73
2023-01-05T13:26:56.708Z,6.00
2023-01-05T13:29:27.562Z,6.37
2023-01-05T13:32:33.173Z,4.87
2023-01-05T13:35:37.441Z,5.07
2023-01-05T13:39:04.076Z,5.27
2023-01-05T13:42:15.473Z,4.37
2023-01-05T13:45:23.782Z,4.83
2023-01-05T13:48:38.652Z,4.93
2023-01-05T13:51:58.059Z,4.07
2023-01-05T13:55:14.680Z,4.23
2023-01-05T13:57:45.982Z,3.90
2023-01-05T14:00:41.796Z,5.33
2023-01-05T14:03:25.530Z,4.40
2023-01-05T14:05:59.342Z,3.93
2023-01-05T14:08:32.461Z,3.63
2023-01-05T14:11:19.423Z,4.17
2023-01-05T14:13:51.552Z,4.57
2023-01-05T14:16:34.042Z,3.80
2023-01-05T14:19:50.165Z,3.67
2023-01-05T14:22:20.135Z,3.27
2023-01-05T14:24:50.109Z,3.77
2023-01-05T14:27:24.987Z,3.60
2023-01-05T14:32:41.837Z,4.03
2023-01-05T14:35:11.753Z,4.00
2023-01-05T14:37:56.908Z,4.10
2023-01-05T14:40:39.028Z,3.63
2023-01-05T14:43:27.396Z,3.77
2023-01-05T14:46:14.346Z,3.50
2023-01-05T14:49:03.095Z,4.83
2023-01-05T14:51:32.496Z,4.23
2023-01-05T14:54:08.870Z,3.93
2023-01-05T14:56:37.487Z,4.93
2023-01-05T14:59:23.417Z,6.00
2023-01-05T15:01:57.173Z,6.30
2023-01-05T15:04:37.706Z,6.37
2023-01-05T15:07:30.855Z,5.30
2023-01-05T15:10:18.153Z,5.20
2023-01-05T15:13:22.085Z,5.33
2023-01-05T15:15:58.205Z,6.33
2023-01-05T15:19:12.201Z,5.93
2023-01-05T15:22:24.326Z,5.77
2023-01-05T15:25:16.916Z,5.80
2023-01-05T15:28:26.577Z,6.77
2023-01-05T15:31:14.432Z,6.77
2023-01-05T15:34:20.304Z,7.57
2023-01-05T15:37:05.407Z,5.33
2023-01-05T15:39:45.053Z,5.20
2023-01-05T15:42:44.886Z,4.47
2023-01-05T15:45:35.456Z,5.30
2023-01-05T15:48:13.119Z,5.37
2023-01-05T15:50:48.620Z,5.90
2023-01-05T15:53:33.099Z,5.43
2023-01-05T15:56:01.634Z,5.00
2023-01-05T15:58:32.796Z,5.60
2023-01-05T16:01:04.231Z,5.53
2023-01-05T16:03:35.276Z,5.37
2023-01-05T16:06:21.486Z,6.07
2023-01-05T16:08:52.385Z,5.20
2023-01-05T16:11:35.875Z,5.00
2023-01-05T16:14:42.845Z,4.47
2023-01-05T16:17:22.243Z,4.70
2023-01-05T16:20:24.469Z,4.70
2023-01-05T16:23:08.881Z,4.10
2023-01-05T16:25:56.417Z,4.33
2023-01-05T16:28:25.238Z,3.80
2023-01-05T16:30:54.388Z,3.70
2023-01-05T16:33:30.269Z,4.03
2023-01-05T16:36:19.976Z,4.80
2023-01-05T16:38:47.635Z,4.10
2023-01-05T16:41:26.581Z,4.40
2023-01-05T16:44:01.019Z,3.87
2023-01-05T16:46:30.740Z,4.53
2023-01-05T16:49:33.739Z,5.03
2023-01-05T16:52:02.075Z,3.60
2023-01-05T16:54:39.276Z,4.10
2023-01-05T16:57:43.257Z,5.67
2023-01-05T17:00:28.586Z,4.07
2023-01-05T17:03:00.664Z,4.37
2023-01-05T17:05:36.663Z,4.23
2023-01-05T17:08:16.141Z,5.13
2023-01-05T17:10:43.328Z,15.87
2023-01-05T17:13:20.918Z,11.90
2023-01-05T17:15:50.640Z,39.90
2023-01-05T17:18:27.240Z,4.57
2023-01-05T17:20:56.863Z,4.10
2023-01-05T17:23:40.027Z,4.10
2023-01-05T17:26:10.292Z,3.57
2023-01-05T17:28:37.866Z,3.53
2023-01-05T17:31:05.519Z,3.63
2023-01-05T17:33:32.636Z,3.90
2023-01-05T17:36:00.940Z,4.23
2023-01-05T17:38:28.003Z,4.70
2023-01-05T17:40:54.975Z,4.00
2023-01-05T17:43:21.947Z,4.37
2023-01-05T17:45:49.029Z,6.20
2023-01-05T17:48:16.809Z,6.70
2023-01-05T17:50:44.358Z,5.37
2023-01-05T17:53:11.684Z,5.30
2023-01-05T17:55:38.890Z,4.27
2023-01-05T17:58:06.013Z,4.77
2023-01-05T18:00:39.661Z,3.47
2023-01-05T18:03:06.713Z,3.50
2023-01-05T18:05:33.661Z,3.67
2023-01-05T18:08:00.632Z,3.50
2023-01-05T18:10:29.403Z,4.37
2023-01-05T18:12:57.299Z,4.63
2023-01-05T18:15:24.306Z,3.70
2023-01-05T18:17:51.316Z,5.17
2023-01-05T18:20:20.100Z,4.63
2023-01-05T18:22:48.942Z,4.17
2023-01-05T18:25:17.223Z,3.97
2023-01-05T18:27:44.680Z,3.87
2023-01-05T18:30:13.206Z,3.90
2023-01-05T18:32:40.727Z,3.70
2023-01-05T18:35:10.260Z,4.70
2023-01-05T18:37:39.478Z,3.83
2023-01-05T18:40:08.155Z,3.60
2023-01-05T18:42:37.155Z,4.17
2023-01-05T18:45:18.743Z,3.90
2023-01-05T18:47:46.545Z,3.97
2023-01-05T18:50:13.764Z,3.20
2023-01-05T18:52:40.891Z,4.00
2023-01-05T18:55:08.262Z,3.70
2023-01-05T18:57:36.130Z,4.17
2023-01-05T19:00:04.863Z,4.30
2023-01-05T19:02:32.125Z,7.10
2023-01-05T19:04:59.114Z,4.10
2023-01-05T19:07:26.200Z,4.70
2023-01-05T19:09:53.510Z,5.60
2023-01-05T19:12:20.580Z,4.23
2023-01-05T19:14:47.554Z,4.40
2023-01-05T19:17:14.548Z,3.70
2023-01-05T19:19:41.557Z,3.77
2023-01-05T19:22:08.588Z,3.73
2023-01-05T19:24:35.605Z,4.27
2023-01-05T19:27:02.720Z,3.63
2023-01-05T19:29:29.777Z,3.30
2023-01-05T19:31:56.834Z,3.80
2023-01-05T19:34:23.941Z,3.33
2023-01-05T19:36:50.879Z,3.80
2023-01-05T19:39:21.519Z,3.73
2023-01-05T19:41:51.352Z,3.40
2023-01-05T19:44:20.766Z,3.70
2023-01-05T19:46:49.324Z,3.20
2023-01-05T19:49:26.693Z,3.70
2023-01-05T19:51:54.726Z,3.13
2023-01-05T19:54:23.955Z,3.37
2023-01-05T19:56:51.364Z,3.13
2023-01-05T19:59:21.927Z,2.93
2023-01-05T20:01:49.081Z,2.70
2023-01-05T20:04:16.564Z,2.80
2023-01-05T20:06:45.720Z,2.60
2023-01-05T20:09:18.903Z,2.60
2023-01-05T20:11:49.202Z,2.47
2023-01-05T20:14:20.835Z,2.30
2023-01-05T20:16:54.999Z,2.33
2023-01-05T20:19:24.597Z,2.30
2023-01-05T20:21:51.757Z,2.07
2023-01-05T20:24:23.555Z,2.27
2023-01-05T20:26:57.414Z,2.57
2023-01-05T20:29:25.897Z,2.60
2023-01-05T20:32:05.910Z,2.47
2023-01-05T20:34:36.829Z,2.20
2023-01-05T20:37:07.812Z,2.30
2023-01-05T20:39:36.428Z,2.23
2023-01-05T20:42:06.694Z,2.33
2023-01-05T20:44:37.339Z,2.57
2023-01-05T20:47:05.787Z,2.73
2023-01-05T20:49:34.977Z,2.70
2023-01-05T20:52:02.291Z,2.40
2023-01-05T20:54:29.336Z,2.03
2023-01-05T20:56:56.768Z,2.00
2023-01-05T20:59:27.789Z,2.33
2023-01-05T21:01:55.399Z,2.20
2023-01-05T21:04:25.091Z,2.70
2023-01-05T21:06:54.419Z,3.13
2023-01-05T21:09:22.992Z,2.30
2023-01-05T21:11:50.335Z,1.80
2023-01-05T21:14:19.654Z,2.03
2023-01-05T21:16:50.665Z,2.57
2023-01-05T21:19:21.982Z,2.33
2023-01-05T21:21:52.801Z,1.70
2023-01-05T21:24:20.487Z,2.17
2023-01-05T21:26:47.616Z,2.33
2023-01-05T21:29:16.486Z,1.80
2023-01-05T21:31:43.864Z,1.70
2023-01-05T21:34:11.793Z,2.10
2023-01-05T21:36:41.673Z,2.10
2023-01-05T21:39:14.223Z,1.97
2023-01-05T21:42:00.779Z,2.30
2023-01-05T21:44:27.810Z,2.17
2023-01-05T21:46:54.754Z,1.87
2023-01-05T21:49:21.745Z,2.10
2023-01-05T21:52:07.527Z,2.13
2023-01-05T21:54:53.335Z,2.13
2023-01-05T21:57:20.345Z,1.93
2023-01-05T21:59:47.407Z,2.00
2023-01-05T22:02:15.248Z,2.03
2023-01-05T22:04:43.195Z,2.40
2023-01-05T22:07:10.833Z,2.03
2023-01-05T22:09:38.185Z,1.87
2023-01-05T22:12:09.632Z,1.90
2023-01-05T22:14:38.130Z,2.00
2023-01-05T22:17:07.953Z,2.13
2023-01-05T22:19:35.377Z,2.70
2023-01-05T22:22:02.739Z,2.03
2023-01-05T22:24:29.674Z,2.20
2023-01-05T22:26:56.509Z,2.83
2023-01-05T22:29:23.828Z,1.83
2023-01-05T22:31:51.075Z,1.77
2023-01-05T22:34:18.586Z,1.70
2023-01-05T22:36:45.980Z,1.50
2023-01-05T22:39:13.179Z,1.83
2023-01-05T22:41:40.528Z,2.47
2023-01-05T22:44:08.337Z,2.13
2023-01-05T22:46:35.584Z,2.00
2023-01-05T22:49:02.545Z,1.70
2023-01-05T22:51:33.385Z,1.93
2023-01-05T22:54:01.010Z,1.67
2023-01-05T22:56:30.918Z,1.90
2023-01-05T22:58:59.145Z,1.77
2023-01-05T23:01:43.192Z,1.77
2023-01-05T23:04:11.330Z,1.60
2023-01-05T23:06:38.525Z,2.00
2023-01-05T23:09:07.604Z,1.63
2023-01-05T23:11:38.801Z,1.67
2023-01-05T23:14:09.937Z,1.43
2023-01-05T23:16:37.788Z,1.20
2023-01-05T23:19:07.198Z,1.43
2023-01-05T23:21:34.728Z,1.50
2023-01-05T23:24:01.756Z,1.47
2023-01-05T23:26:29.138Z,1.77
2023-01-05T23:28:56.906Z,1.13
2023-01-05T23:31:30.047Z,1.33
2023-01-05T23:33:57.949Z,1.57
2023-01-05T23:36:25.147Z,1.50
2023-01-05T23:38:52.125Z,1.83
2023-01-05T23:41:19.873Z,1.53
2023-01-05T23:43:47.368Z,1.50
2023-01-05T23:46:20.460Z,1.50
2023-01-05T23:48:49.090Z,1.50
2023-01-05T23:51:18.964Z,1.50
2023-01-05T23:53:50.804Z,1.60
2023-01-05T23:56:25.275Z,1.37
2023-01-05T23:59:08.365Z,1.20
